sensor_id;sensor_type;location;lat;lon;timestamp;P1;durP1;ratioP1;P2;durP2;ratioP2
1685;SDS011;840;47.980;7.830;2024-01-06T00:01:05;5.60;;;4.50;;
1685;SDS011;840;47.980;7.830;2024-01-06T00:03:36;4.57;;;2.63;;
1685;SDS011;840;47.980;7.830;2024-01-06T00:06:03;7.10;;;3.30;;
1685;SDS011;840;47.980;7.830;2024-01-06T00:08:30;6.10;;;2.90;;
1685;SDS011;840;47.980;7.830;2024-01-06T00:10:56;3.57;;;3.27;;
1685;SDS011;840;47.980;7.830;2024-01-06T00:13:23;4.67;;;2.73;;
1685;SDS011;840;47.980;7.830;2024-01-06T00:15:54;3.73;;;2.93;;
1685;SDS011;840;47.980;7.830;2024-01-06T00:18:21;8.40;;;2.80;;
1685;SDS011;840;47.980;7.830;2024-01-06T00:20:47;5.93;;;3.50;;
1685;SDS011;840;47.980;7.830;2024-01-06T00:23:14;3.40;;;3.10;;
1685;SDS011;840;47.980;7.830;2024-01-06T00:25:41;3.90;;;2.63;;
1685;SDS011;840;47.980;7.830;2024-01-06T00:28:07;9.73;;;3.03;;
1685;SDS011;840;47.980;7.830;2024-01-06T00:30:34;2.87;;;2.67;;
1685;SDS011;840;47.980;7.830;2024-01-06T00:33:03;3.63;;;3.23;;
1685;SDS011;840;47.980;7.830;2024-01-06T00:35:30;4.23;;;2.53;;
1685;SDS011;840;47.980;7.830;2024-01-06T00:37:56;2.97;;;2.47;;
1685;SDS011;840;47.980;7.830;2024-01-06T00:40:25;4.10;;;2.97;;
1685;SDS011;840;47.980;7.830;2024-01-06T00:42:52;4.10;;;3.00;;
1685;SDS011;840;47.980;7.830;2024-01-06T00:45:19;4.17;;;3.10;;
1685;SDS011;840;47.980;7.830;2024-01-06T00:47:45;5.17;;;3.57;;
1685;SDS011;840;47.980;7.830;2024-01-06T00:50:14;2.80;;;2.47;;
1685;SDS011;840;47.980;7.830;2024-01-06T00:52:42;3.80;;;3.50;;
1685;SDS011;840;47.980;7.830;2024-01-06T00:55:08;8.17;;;3.57;;
1685;SDS011;840;47.980;7.830;2024-01-06T00:57:35;3.80;;;3.10;;
1685;SDS011;840;47.980;7.830;2024-01-06T01:00:02;10.87;;;3.40;;
1685;SDS011;840;47.980;7.830;2024-01-06T01:02:30;6.13;;;4.07;;
1685;SDS011;840;47.980;7.830;2024-01-06T01:04:57;5.87;;;3.80;;
1685;SDS011;840;47.980;7.830;2024-01-06T01:07:25;6.67;;;4.40;;
1685;SDS011;840;47.980;7.830;2024-01-06T01:09:52;3.67;;;2.57;;
1685;SDS011;840;47.980;7.830;2024-01-06T01:12:19;3.77;;;2.93;;
1685;SDS011;840;47.980;7.830;2024-01-06T01:14:45;2.97;;;2.50;;
1685;SDS011;840;47.980;7.830;2024-01-06T01:17:12;4.57;;;2.67;;
1685;SDS011;840;47.980;7.830;2024-01-06T01:19:39;5.43;;;2.60;;
1685;SDS011;840;47.980;7.830;2024-01-06T01:22:06;4.63;;;2.97;;
1685;SDS011;840;47.980;7.830;2024-01-06T01:24:34;3.63;;;2.43;;
1685;SDS011;840;47.980;7.830;2024-01-06T01:27:01;3.30;;;3.00;;
1685;SDS011;840;47.980;7.830;2024-01-06T01:29:28;4.13;;;2.63;;
1685;SDS011;840;47.980;7.830;2024-01-06T01:31:54;3.23;;;2.80;;
1685;SDS011;840;47.980;7.830;2024-01-06T01:34:21;3.30;;;2.90;;
1685;SDS011;840;47.980;7.830;2024-01-06T01:36:48;3.07;;;2.80;;
1685;SDS011;840;47.980;7.830;2024-01-06T01:39:15;3.90;;;3.50;;
1685;SDS011;840;47.980;7.830;2024-01-06T01:41:43;3.77;;;2.50;;
1685;SDS011;840;47.980;7.830;2024-01-06T01:44:09;4.93;;;3.17;;
1685;SDS011;840;47.980;7.830;2024-01-06T01:46:36;4.80;;;3.27;;
1685;SDS011;840;47.980;7.830;2024-01-06T01:49:03;6.17;;;3.20;;
1685;SDS011;840;47.980;7.830;2024-01-06T01:51:31;6.80;;;3.50;;
1685;SDS011;840;47.980;7.830;2024-01-06T01:54:00;4.20;;;3.20;;
1685;SDS011;840;47.980;7.830;2024-01-06T01:56:28;3.10;;;2.80;;
1685;SDS011;840;47.980;7.830;2024-01-06T01:59:00;6.80;;;3.93;;
1685;SDS011;840;47.980;7.830;2024-01-06T02:01:30;4.30;;;2.83;;
1685;SDS011;840;47.980;7.830;2024-01-06T02:03:57;6.20;;;3.50;;
1685;SDS011;840;47.980;7.830;2024-01-06T02:06:24;4.53;;;3.37;;
1685;SDS011;840;47.980;7.830;2024-01-06T02:08:51;5.73;;;2.50;;
1685;SDS011;840;47.980;7.830;2024-01-06T02:11:17;3.67;;;2.93;;
1685;SDS011;840;47.980;7.830;2024-01-06T02:13:44;4.60;;;3.23;;
1685;SDS011;840;47.980;7.830;2024-01-06T02:16:12;4.80;;;3.40;;
1685;SDS011;840;47.980;7.830;2024-01-06T02:18:39;3.63;;;2.63;;
1685;SDS011;840;47.980;7.830;2024-01-06T02:21:06;6.60;;;3.20;;
1685;SDS011;840;47.980;7.830;2024-01-06T02:23:34;4.40;;;3.30;;
1685;SDS011;840;47.980;7.830;2024-01-06T02:26:02;3.33;;;2.80;;
1685;SDS011;840;47.980;7.830;2024-01-06T02:28:29;3.53;;;2.63;;
1685;SDS011;840;47.980;7.830;2024-01-06T02:30:56;3.93;;;2.67;;
1685;SDS011;840;47.980;7.830;2024-01-06T02:33:23;3.40;;;3.10;;
1685;SDS011;840;47.980;7.830;2024-01-06T02:35:49;4.10;;;2.70;;
1685;SDS011;840;47.980;7.830;2024-01-06T02:38:16;4.17;;;3.77;;
1685;SDS011;840;47.980;7.830;2024-01-06T02:40:44;2.53;;;2.33;;
1685;SDS011;840;47.980;7.830;2024-01-06T02:43:11;3.80;;;2.80;;
1685;SDS011;840;47.980;7.830;2024-01-06T02:45:38;3.00;;;2.57;;
1685;SDS011;840;47.980;7.830;2024-01-06T02:48:05;4.20;;;3.20;;
1685;SDS011;840;47.980;7.830;2024-01-06T02:50:32;2.53;;;2.40;;
1685;SDS011;840;47.980;7.830;2024-01-06T02:52:58;4.03;;;2.47;;
1685;SDS011;840;47.980;7.830;2024-01-06T02:55:25;4.67;;;2.67;;
1685;SDS011;840;47.980;7.830;2024-01-06T02:57:53;3.63;;;2.10;;
1685;SDS011;840;47.980;7.830;2024-01-06T03:00:20;3.93;;;2.87;;
1685;SDS011;840;47.980;7.830;2024-01-06T03:02:47;2.50;;;2.30;;
1685;SDS011;840;47.980;7.830;2024-01-06T03:05:13;3.30;;;2.20;;
1685;SDS011;840;47.980;7.830;2024-01-06T03:07:40;3.80;;;2.20;;
1685;SDS011;840;47.980;7.830;2024-01-06T03:10:07;5.30;;;2.33;;
1685;SDS011;840;47.980;7.830;2024-01-06T03:12:34;2.80;;;2.60;;
1685;SDS011;840;47.980;7.830;2024-01-06T03:15:02;2.70;;;2.50;;
1685;SDS011;840;47.980;7.830;2024-01-06T03:17:29;2.60;;;2.40;;
1685;SDS011;840;47.980;7.830;2024-01-06T03:19:56;4.20;;;2.97;;
1685;SDS011;840;47.980;7.830;2024-01-06T03:22:23;2.87;;;2.53;;
1685;SDS011;840;47.980;7.830;2024-01-06T03:24:49;3.30;;;2.40;;
1685;SDS011;840;47.980;7.830;2024-01-06T03:27:16;6.83;;;2.87;;
1685;SDS011;840;47.980;7.830;2024-01-06T03:29:43;4.60;;;2.30;;
1685;SDS011;840;47.980;7.830;2024-01-06T03:32:11;5.20;;;3.50;;
1685;SDS011;840;47.980;7.830;2024-01-06T03:34:38;4.23;;;3.00;;
1685;SDS011;840;47.980;7.830;2024-01-06T03:37:04;4.60;;;2.60;;
1685;SDS011;840;47.980;7.830;2024-01-06T03:39:31;2.80;;;2.40;;
1685;SDS011;840;47.980;7.830;2024-01-06T03:41:57;4.73;;;2.70;;
1685;SDS011;840;47.980;7.830;2024-01-06T03:44:25;6.67;;;2.80;;
1685;SDS011;840;47.980;7.830;2024-01-06T03:46:55;3.77;;;2.67;;
1685;SDS011;840;47.980;7.830;2024-01-06T03:49:23;3.60;;;1.93;;
1685;SDS011;840;47.980;7.830;2024-01-06T03:51:50;2.70;;;2.40;;
1685;SDS011;840;47.980;7.830;2024-01-06T03:54:17;6.50;;;2.63;;
1685;SDS011;840;47.980;7.830;2024-01-06T03:56:44;4.27;;;3.00;;
1685;SDS011;840;47.980;7.830;2024-01-06T03:59:10;2.23;;;2.03;;
1685;SDS011;840;47.980;7.830;2024-01-06T04:01:37;2.50;;;2.30;;
1685;SDS011;840;47.980;7.830;2024-01-06T04:04:04;3.23;;;2.20;;
1685;SDS011;840;47.980;7.830;2024-01-06T04:06:32;2.97;;;1.90;;
1685;SDS011;840;47.980;7.830;2024-01-06T04:08:59;8.27;;;2.67;;
1685;SDS011;840;47.980;7.830;2024-01-06T04:11:26;3.57;;;2.30;;
1685;SDS011;840;47.980;7.830;2024-01-06T04:13:53;3.53;;;1.70;;
1685;SDS011;840;47.980;7.830;2024-01-06T04:16:20;4.90;;;2.63;;
1685;SDS011;840;47.980;7.830;2024-01-06T04:18:47;1.97;;;1.63;;
1685;SDS011;840;47.980;7.830;2024-01-06T04:21:13;2.77;;;2.23;;
1685;SDS011;840;47.980;7.830;2024-01-06T04:23:41;2.53;;;2.00;;
1685;SDS011;840;47.980;7.830;2024-01-06T04:26:08;2.77;;;2.53;;
1685;SDS011;840;47.980;7.830;2024-01-06T04:28:35;2.17;;;1.97;;
1685;SDS011;840;47.980;7.830;2024-01-06T04:31:02;3.77;;;2.20;;
1685;SDS011;840;47.980;7.830;2024-01-06T04:33:29;1.70;;;1.60;;
1685;SDS011;840;47.980;7.830;2024-01-06T04:35:56;3.37;;;2.00;;
1685;SDS011;840;47.980;7.830;2024-01-06T04:38:24;4.07;;;2.00;;
1685;SDS011;840;47.980;7.830;2024-01-06T04:40:52;2.00;;;1.80;;
1685;SDS011;840;47.980;7.830;2024-01-06T04:43:19;3.47;;;2.03;;
1685;SDS011;840;47.980;7.830;2024-01-06T04:45:45;2.40;;;1.87;;
1685;SDS011;840;47.980;7.830;2024-01-06T04:48:12;2.40;;;2.20;;
1685;SDS011;840;47.980;7.830;2024-01-06T04:50:39;2.63;;;1.90;;
1685;SDS011;840;47.980;7.830;2024-01-06T04:53:05;2.10;;;1.80;;
1685;SDS011;840;47.980;7.830;2024-01-06T04:55:32;4.03;;;2.23;;
1685;SDS011;840;47.980;7.830;2024-01-06T04:58:00;2.07;;;1.97;;
1685;SDS011;840;47.980;7.830;2024-01-06T05:00:27;5.97;;;2.83;;
1685;SDS011;840;47.980;7.830;2024-01-06T05:02:53;2.30;;;1.67;;
1685;SDS011;840;47.980;7.830;2024-01-06T05:05:20;4.90;;;2.00;;
1685;SDS011;840;47.980;7.830;2024-01-06T05:07:47;2.57;;;2.37;;
1685;SDS011;840;47.980;7.830;2024-01-06T05:10:14;3.90;;;1.90;;
1685;SDS011;840;47.980;7.830;2024-01-06T05:12:40;1.90;;;1.73;;
1685;SDS011;840;47.980;7.830;2024-01-06T05:15:09;4.10;;;2.67;;
1685;SDS011;840;47.980;7.830;2024-01-06T05:17:35;2.20;;;2.00;;
1685;SDS011;840;47.980;7.830;2024-01-06T05:20:02;2.40;;;1.90;;
1685;SDS011;840;47.980;7.830;2024-01-06T05:22:29;2.03;;;1.70;;
1685;SDS011;840;47.980;7.830;2024-01-06T05:24:56;2.43;;;2.00;;
1685;SDS011;840;47.980;7.830;2024-01-06T05:27:23;2.40;;;2.20;;
1685;SDS011;840;47.980;7.830;2024-01-06T05:29:49;2.40;;;1.93;;
1685;SDS011;840;47.980;7.830;2024-01-06T05:32:18;2.00;;;1.80;;
1685;SDS011;840;47.980;7.830;2024-01-06T05:34:44;2.93;;;2.20;;
1685;SDS011;840;47.980;7.830;2024-01-06T05:37:11;3.47;;;2.30;;
1685;SDS011;840;47.980;7.830;2024-01-06T05:39:38;2.20;;;2.00;;
1685;SDS011;840;47.980;7.830;2024-01-06T05:42:05;2.93;;;2.63;;
1685;SDS011;840;47.980;7.830;2024-01-06T05:44:34;1.47;;;1.33;;
1685;SDS011;840;47.980;7.830;2024-01-06T05:47:01;1.60;;;1.50;;
1685;SDS011;840;47.980;7.830;2024-01-06T05:49:29;2.30;;;1.73;;
1685;SDS011;840;47.980;7.830;2024-01-06T05:51:56;3.93;;;2.10;;
1685;SDS011;840;47.980;7.830;2024-01-06T05:54:23;1.90;;;1.77;;
1685;SDS011;840;47.980;7.830;2024-01-06T05:56:49;1.77;;;1.67;;
1685;SDS011;840;47.980;7.830;2024-01-06T05:59:16;2.93;;;1.50;;
1685;SDS011;840;47.980;7.830;2024-01-06T06:01:43;3.20;;;1.77;;
1685;SDS011;840;47.980;7.830;2024-01-06T06:04:10;2.83;;;1.33;;
1685;SDS011;840;47.980;7.830;2024-01-06T06:06:39;3.47;;;1.70;;
1685;SDS011;840;47.980;7.830;2024-01-06T06:09:05;2.53;;;1.87;;
1685;SDS011;840;47.980;7.830;2024-01-06T06:11:35;1.50;;;1.40;;
1685;SDS011;840;47.980;7.830;2024-01-06T06:14:01;2.97;;;1.43;;
1685;SDS011;840;47.980;7.830;2024-01-06T06:16:29;2.47;;;1.10;;
1685;SDS011;840;47.980;7.830;2024-01-06T06:18:56;3.23;;;1.73;;
1685;SDS011;840;47.980;7.830;2024-01-06T06:21:23;2.13;;;1.70;;
1685;SDS011;840;47.980;7.830;2024-01-06T06:23:51;1.70;;;0.90;;
1685;SDS011;840;47.980;7.830;2024-01-06T06:26:17;3.23;;;1.37;;
1685;SDS011;840;47.980;7.830;2024-01-06T06:28:44;2.20;;;1.40;;
1685;SDS011;840;47.980;7.830;2024-01-06T06:31:11;2.20;;;1.27;;
1685;SDS011;840;47.980;7.830;2024-01-06T06:33:37;5.80;;;1.67;;
1685;SDS011;840;47.980;7.830;2024-01-06T06:36:05;2.43;;;1.37;;
1685;SDS011;840;47.980;7.830;2024-01-06T06:38:32;5.07;;;2.10;;
1685;SDS011;840;47.980;7.830;2024-01-06T06:41:00;2.90;;;1.90;;
1685;SDS011;840;47.980;7.830;2024-01-06T06:43:27;1.63;;;1.53;;
1685;SDS011;840;47.980;7.830;2024-01-06T06:45:54;2.30;;;1.53;;
1685;SDS011;840;47.980;7.830;2024-01-06T06:48:21;2.70;;;1.67;;
1685;SDS011;840;47.980;7.830;2024-01-06T06:50:48;3.17;;;1.90;;
1685;SDS011;840;47.980;7.830;2024-01-06T06:53:15;2.60;;;1.70;;
1685;SDS011;840;47.980;7.830;2024-01-06T06:55:41;2.17;;;2.07;;
1685;SDS011;840;47.980;7.830;2024-01-06T06:58:09;3.27;;;1.63;;
1685;SDS011;840;47.980;7.830;2024-01-06T07:00:36;1.83;;;1.27;;
1685;SDS011;840;47.980;7.830;2024-01-06T07:03:04;2.83;;;2.23;;
1685;SDS011;840;47.980;7.830;2024-01-06T07:05:30;1.70;;;1.57;;
1685;SDS011;840;47.980;7.830;2024-01-06T07:07:59;4.10;;;2.00;;
1685;SDS011;840;47.980;7.830;2024-01-06T07:10:26;1.87;;;1.50;;
1685;SDS011;840;47.980;7.830;2024-01-06T07:12:53;2.30;;;1.47;;
1685;SDS011;840;47.980;7.830;2024-01-06T07:15:21;2.60;;;1.40;;
1685;SDS011;840;47.980;7.830;2024-01-06T07:17:48;2.10;;;1.90;;
1685;SDS011;840;47.980;7.830;2024-01-06T07:20:14;2.63;;;1.60;;
1685;SDS011;840;47.980;7.830;2024-01-06T07:22:41;2.87;;;1.60;;
1685;SDS011;840;47.980;7.830;2024-01-06T07:25:08;5.13;;;2.00;;
1685;SDS011;840;47.980;7.830;2024-01-06T07:27:35;1.90;;;1.80;;
1685;SDS011;840;47.980;7.830;2024-01-06T07:30:02;4.00;;;2.20;;
1685;SDS011;840;47.980;7.830;2024-01-06T07:32:31;1.63;;;1.53;;
1685;SDS011;840;47.980;7.830;2024-01-06T07:34:58;2.07;;;1.83;;
1685;SDS011;840;47.980;7.830;2024-01-06T07:37:25;3.30;;;1.80;;
1685;SDS011;840;47.980;7.830;2024-01-06T07:39:51;3.70;;;2.20;;
1685;SDS011;840;47.980;7.830;2024-01-06T07:42:18;3.70;;;2.07;;
1685;SDS011;840;47.980;7.830;2024-01-06T07:44:45;3.67;;;1.60;;
1685;SDS011;840;47.980;7.830;2024-01-06T07:47:11;9.07;;;2.40;;
1685;SDS011;840;47.980;7.830;2024-01-06T07:49:41;3.43;;;2.07;;
1685;SDS011;840;47.980;7.830;2024-01-06T07:52:07;2.17;;;2.07;;
1685;SDS011;840;47.980;7.830;2024-01-06T07:54:34;2.93;;;1.93;;
1685;SDS011;840;47.980;7.830;2024-01-06T07:57:01;2.97;;;2.63;;
1685;SDS011;840;47.980;7.830;2024-01-06T07:59:28;1.77;;;1.67;;
1685;SDS011;840;47.980;7.830;2024-01-06T08:01:54;2.27;;;2.07;;
1685;SDS011;840;47.980;7.830;2024-01-06T08:04:21;3.87;;;2.57;;
1685;SDS011;840;47.980;7.830;2024-01-06T08:06:49;2.00;;;1.73;;
1685;SDS011;840;47.980;7.830;2024-01-06T08:09:16;2.20;;;1.50;;
1685;SDS011;840;47.980;7.830;2024-01-06T08:11:42;8.57;;;1.77;;
1685;SDS011;840;47.980;7.830;2024-01-06T08:14:12;3.53;;;1.60;;
1685;SDS011;840;47.980;7.830;2024-01-06T08:16:39;1.80;;;1.70;;
1685;SDS011;840;47.980;7.830;2024-01-06T08:19:05;2.70;;;1.90;;
1685;SDS011;840;47.980;7.830;2024-01-06T08:21:32;2.03;;;1.70;;
1685;SDS011;840;47.980;7.830;2024-01-06T08:24:01;2.33;;;1.70;;
1685;SDS011;840;47.980;7.830;2024-01-06T08:26:28;3.97;;;2.20;;
1685;SDS011;840;47.980;7.830;2024-01-06T08:28:56;2.77;;;2.50;;
1685;SDS011;840;47.980;7.830;2024-01-06T08:31:22;1.40;;;1.30;;
1685;SDS011;840;47.980;7.830;2024-01-06T08:33:49;2.60;;;1.43;;
1685;SDS011;840;47.980;7.830;2024-01-06T08:36:16;3.00;;;2.63;;
1685;SDS011;840;47.980;7.830;2024-01-06T08:38:43;2.17;;;1.50;;
1685;SDS011;840;47.980;7.830;2024-01-06T08:41:13;2.30;;;1.33;;
1685;SDS011;840;47.980;7.830;2024-01-06T08:43:40;2.87;;;2.67;;
1685;SDS011;840;47.980;7.830;2024-01-06T08:46:06;9.30;;;3.20;;
1685;SDS011;840;47.980;7.830;2024-01-06T08:48:33;4.50;;;3.50;;
1685;SDS011;840;47.980;7.830;2024-01-06T08:51:00;5.37;;;3.70;;
1685;SDS011;840;47.980;7.830;2024-01-06T08:53:26;4.73;;;3.17;;
1685;SDS011;840;47.980;7.830;2024-01-06T08:55:53;4.10;;;3.07;;
1685;SDS011;840;47.980;7.830;2024-01-06T08:58:21;3.33;;;3.03;;
1685;SDS011;840;47.980;7.830;2024-01-06T09:00:48;7.80;;;3.27;;
1685;SDS011;840;47.980;7.830;2024-01-06T09:03:15;5.60;;;2.80;;
1685;SDS011;840;47.980;7.830;2024-01-06T09:05:42;3.70;;;2.47;;
1685;SDS011;840;47.980;7.830;2024-01-06T09:08:09;3.00;;;2.63;;
1685;SDS011;840;47.980;7.830;2024-01-06T09:10:36;3.20;;;3.00;;
1685;SDS011;840;47.980;7.830;2024-01-06T09:13:03;4.10;;;2.33;;
1685;SDS011;840;47.980;7.830;2024-01-06T09:15:31;2.90;;;2.43;;
1685;SDS011;840;47.980;7.830;2024-01-06T09:17:58;2.57;;;2.37;;
1685;SDS011;840;47.980;7.830;2024-01-06T09:20:25;3.00;;;2.73;;
1685;SDS011;840;47.980;7.830;2024-01-06T09:22:52;2.70;;;2.23;;
1685;SDS011;840;47.980;7.830;2024-01-06T09:25:19;2.90;;;2.30;;
1685;SDS011;840;47.980;7.830;2024-01-06T09:27:48;2.03;;;1.50;;
1685;SDS011;840;47.980;7.830;2024-01-06T09:30:16;2.20;;;1.50;;
1685;SDS011;840;47.980;7.830;2024-01-06T09:32:44;2.10;;;1.30;;
1685;SDS011;840;47.980;7.830;2024-01-06T09:35:11;1.73;;;1.50;;
1685;SDS011;840;47.980;7.830;2024-01-06T09:37:37;2.23;;;1.03;;
1685;SDS011;840;47.980;7.830;2024-01-06T09:40:06;3.07;;;1.63;;
1685;SDS011;840;47.980;7.830;2024-01-06T09:42:37;3.03;;;1.10;;
1685;SDS011;840;47.980;7.830;2024-01-06T09:45:04;2.10;;;1.87;;
1685;SDS011;840;47.980;7.830;2024-01-06T09:47:31;2.03;;;1.67;;
1685;SDS011;840;47.980;7.830;2024-01-06T09:50:02;1.63;;;1.53;;
1685;SDS011;840;47.980;7.830;2024-01-06T09:52:34;1.80;;;1.70;;
1685;SDS011;840;47.980;7.830;2024-01-06T09:55:05;2.10;;;1.67;;
1685;SDS011;840;47.980;7.830;2024-01-06T09:57:36;1.50;;;1.40;;
1685;SDS011;840;47.980;7.830;2024-01-06T10:00:03;1.80;;;0.97;;
1685;SDS011;840;47.980;7.830;2024-01-06T10:02:33;1.97;;;1.57;;
1685;SDS011;840;47.980;7.830;2024-01-06T10:05:01;1.90;;;1.70;;
1685;SDS011;840;47.980;7.830;2024-01-06T10:07:28;2.80;;;2.07;;
1685;SDS011;840;47.980;7.830;2024-01-06T10:09:55;5.97;;;2.03;;
1685;SDS011;840;47.980;7.830;2024-01-06T10:12:22;1.40;;;1.30;;
1685;SDS011;840;47.980;7.830;2024-01-06T10:14:50;2.00;;;1.77;;
1685;SDS011;840;47.980;7.830;2024-01-06T10:17:16;2.47;;;1.70;;
1685;SDS011;840;47.980;7.830;2024-01-06T10:19:44;1.80;;;1.30;;
1685;SDS011;840;47.980;7.830;2024-01-06T10:22:12;3.03;;;1.50;;
1685;SDS011;840;47.980;7.830;2024-01-06T10:24:39;2.80;;;1.87;;
1685;SDS011;840;47.980;7.830;2024-01-06T10:27:06;1.07;;;1.07;;
1685;SDS011;840;47.980;7.830;2024-01-06T10:29:34;3.37;;;1.60;;
1685;SDS011;840;47.980;7.830;2024-01-06T10:32:01;1.90;;;1.50;;
1685;SDS011;840;47.980;7.830;2024-01-06T10:34:28;1.90;;;1.80;;
1685;SDS011;840;47.980;7.830;2024-01-06T10:36:57;1.37;;;1.30;;
1685;SDS011;840;47.980;7.830;2024-01-06T10:39:25;2.50;;;1.70;;
1685;SDS011;840;47.980;7.830;2024-01-06T10:41:53;4.80;;;1.63;;
1685;SDS011;840;47.980;7.830;2024-01-06T10:44:21;3.40;;;1.73;;
1685;SDS011;840;47.980;7.830;2024-01-06T10:46:49;1.67;;;1.57;;
1685;SDS011;840;47.980;7.830;2024-01-06T10:49:17;3.20;;;1.30;;
1685;SDS011;840;47.980;7.830;2024-01-06T10:51:48;1.90;;;1.47;;
1685;SDS011;840;47.980;7.830;2024-01-06T10:54:15;1.77;;;1.67;;
1685;SDS011;840;47.980;7.830;2024-01-06T10:56:46;2.27;;;1.73;;
1685;SDS011;840;47.980;7.830;2024-01-06T10:59:14;1.90;;;1.40;;
1685;SDS011;840;47.980;7.830;2024-01-06T11:01:41;1.67;;;1.50;;
1685;SDS011;840;47.980;7.830;2024-01-06T11:04:10;2.77;;;2.27;;
1685;SDS011;840;47.980;7.830;2024-01-06T11:06:38;2.20;;;1.83;;
1685;SDS011;840;47.980;7.830;2024-01-06T11:09:06;3.23;;;2.03;;
1685;SDS011;840;47.980;7.830;2024-01-06T11:11:37;3.88;;;2.10;;
1685;SDS011;840;47.980;7.830;2024-01-06T11:14:19;3.37;;;2.00;;
1685;SDS011;840;47.980;7.830;2024-01-06T11:16:47;4.70;;;2.17;;
1685;SDS011;840;47.980;7.830;2024-01-06T11:22:20;2.00;;;1.80;;
1685;SDS011;840;47.980;7.830;2024-01-06T11:24:53;1.40;;;1.30;;
1685;SDS011;840;47.980;7.830;2024-01-06T11:27:23;2.87;;;2.03;;
1685;SDS011;840;47.980;7.830;2024-01-06T11:29:54;2.27;;;1.47;;
1685;SDS011;840;47.980;7.830;2024-01-06T11:32:26;2.80;;;2.10;;
1685;SDS011;840;47.980;7.830;2024-01-06T11:34:55;2.67;;;2.47;;
1685;SDS011;840;47.980;7.830;2024-01-06T11:37:34;2.73;;;2.40;;
1685;SDS011;840;47.980;7.830;2024-01-06T11:40:02;1.73;;;1.63;;
1685;SDS011;840;47.980;7.830;2024-01-06T11:42:33;1.87;;;1.47;;
1685;SDS011;840;47.980;7.830;2024-01-06T11:45:05;2.27;;;2.07;;
1685;SDS011;840;47.980;7.830;2024-01-06T11:47:32;2.00;;;1.90;;
1685;SDS011;840;47.980;7.830;2024-01-06T11:50:00;1.40;;;1.30;;
1685;SDS011;840;47.980;7.830;2024-01-06T11:52:29;3.53;;;1.60;;
1685;SDS011;840;47.980;7.830;2024-01-06T11:54:56;6.33;;;2.10;;
1685;SDS011;840;47.980;7.830;2024-01-06T11:57:23;2.00;;;1.40;;
1685;SDS011;840;47.980;7.830;2024-01-06T11:59:51;2.13;;;1.43;;
1685;SDS011;840;47.980;7.830;2024-01-06T12:02:19;1.67;;;1.57;;
1685;SDS011;840;47.980;7.830;2024-01-06T12:04:47;1.37;;;1.27;;
1685;SDS011;840;47.980;7.830;2024-01-06T12:07:15;1.30;;;1.17;;
1685;SDS011;840;47.980;7.830;2024-01-06T12:09:42;2.08;;;1.98;;
1685;SDS011;840;47.980;7.830;2024-01-06T12:12:09;10.70;;;6.67;;
1685;SDS011;840;47.980;7.830;2024-01-06T12:14:39;3.03;;;2.70;;
1685;SDS011;840;47.980;7.830;2024-01-06T12:17:07;2.23;;;2.03;;
1685;SDS011;840;47.980;7.830;2024-01-06T12:19:36;1.40;;;1.30;;
1685;SDS011;840;47.980;7.830;2024-01-06T12:22:04;2.90;;;1.93;;
1685;SDS011;840;47.980;7.830;2024-01-06T12:24:32;2.13;;;1.20;;
1685;SDS011;840;47.980;7.830;2024-01-06T12:26:58;2.50;;;1.23;;
1685;SDS011;840;47.980;7.830;2024-01-06T12:29:26;1.93;;;1.40;;
1685;SDS011;840;47.980;7.830;2024-01-06T12:31:54;1.33;;;1.23;;
1685;SDS011;840;47.980;7.830;2024-01-06T12:34:21;2.07;;;1.70;;
1685;SDS011;840;47.980;7.830;2024-01-06T12:36:51;1.80;;;1.43;;
1685;SDS011;840;47.980;7.830;2024-01-06T12:39:20;1.80;;;1.67;;
1685;SDS011;840;47.980;7.830;2024-01-06T12:41:48;2.90;;;1.77;;
1685;SDS011;840;47.980;7.830;2024-01-06T12:44:16;3.00;;;2.80;;
1685;SDS011;840;47.980;7.830;2024-01-06T12:46:42;2.33;;;2.13;;
1685;SDS011;840;47.980;7.830;2024-01-06T12:49:09;1.93;;;1.77;;
1685;SDS011;840;47.980;7.830;2024-01-06T12:51:36;2.23;;;1.80;;
1685;SDS011;840;47.980;7.830;2024-01-06T12:54:04;2.30;;;2.10;;
1685;SDS011;840;47.980;7.830;2024-01-06T12:56:31;3.40;;;2.23;;
1685;SDS011;840;47.980;7.830;2024-01-06T12:58:58;1.80;;;1.70;;
1685;SDS011;840;47.980;7.830;2024-01-06T13:01:24;2.20;;;1.83;;
1685;SDS011;840;47.980;7.830;2024-01-06T13:03:51;2.67;;;2.47;;
1685;SDS011;840;47.980;7.830;2024-01-06T13:06:19;3.70;;;2.27;;
1685;SDS011;840;47.980;7.830;2024-01-06T13:08:45;3.43;;;2.10;;
1685;SDS011;840;47.980;7.830;2024-01-06T13:11:14;2.70;;;2.50;;
1685;SDS011;840;47.980;7.830;2024-01-06T13:13:41;3.07;;;2.80;;
1685;SDS011;840;47.980;7.830;2024-01-06T13:16:07;2.87;;;2.20;;
1685;SDS011;840;47.980;7.830;2024-01-06T13:18:35;2.77;;;2.57;;
1685;SDS011;840;47.980;7.830;2024-01-06T13:21:02;2.53;;;1.80;;
1685;SDS011;840;47.980;7.830;2024-01-06T13:23:29;1.93;;;1.77;;
1685;SDS011;840;47.980;7.830;2024-01-06T13:25:56;4.43;;;2.43;;
1685;SDS011;840;47.980;7.830;2024-01-06T13:28:24;1.83;;;1.73;;
1685;SDS011;840;47.980;7.830;2024-01-06T13:30:51;2.77;;;2.57;;
1685;SDS011;840;47.980;7.830;2024-01-06T13:33:18;2.00;;;1.90;;
1685;SDS011;840;47.980;7.830;2024-01-06T13:35:45;1.70;;;1.60;;
1685;SDS011;840;47.980;7.830;2024-01-06T13:38:12;1.27;;;1.27;;
1685;SDS011;840;47.980;7.830;2024-01-06T13:40:38;1.67;;;1.57;;
1685;SDS011;840;47.980;7.830;2024-01-06T13:43:05;2.63;;;1.33;;
1685;SDS011;840;47.980;7.830;2024-01-06T13:45:35;1.33;;;1.23;;
1685;SDS011;840;47.980;7.830;2024-01-06T13:48:02;0.83;;;0.70;;
1685;SDS011;840;47.980;7.830;2024-01-06T13:50:29;1.50;;;1.40;;
1685;SDS011;840;47.980;7.830;2024-01-06T13:52:56;1.67;;;0.93;;
1685;SDS011;840;47.980;7.830;2024-01-06T13:55:22;1.40;;;1.20;;
1685;SDS011;840;47.980;7.830;2024-01-06T13:57:49;1.07;;;1.07;;
1685;SDS011;840;47.980;7.830;2024-01-06T14:00:16;1.17;;;1.00;;
1685;SDS011;840;47.980;7.830;2024-01-06T14:02:46;1.67;;;1.30;;
1685;SDS011;840;47.980;7.830;2024-01-06T14:05:13;1.77;;;1.27;;
1685;SDS011;840;47.980;7.830;2024-01-06T14:07:40;1.53;;;1.43;;
1685;SDS011;840;47.980;7.830;2024-01-06T14:10:10;1.10;;;1.10;;
1685;SDS011;840;47.980;7.830;2024-01-06T14:12:37;1.43;;;1.30;;
1685;SDS011;840;47.980;7.830;2024-01-06T14:15:05;1.50;;;1.40;;
1685;SDS011;840;47.980;7.830;2024-01-06T14:17:33;2.10;;;1.90;;
1685;SDS011;840;47.980;7.830;2024-01-06T14:20:01;2.67;;;1.83;;
1685;SDS011;840;47.980;7.830;2024-01-06T14:22:29;2.20;;;1.70;;
1685;SDS011;840;47.980;7.830;2024-01-06T14:24:56;1.70;;;1.60;;
1685;SDS011;840;47.980;7.830;2024-01-06T14:27:22;1.13;;;1.13;;
1685;SDS011;840;47.980;7.830;2024-01-06T14:29:51;1.40;;;1.30;;
1685;SDS011;840;47.980;7.830;2024-01-06T14:32:20;2.27;;;1.40;;
1685;SDS011;840;47.980;7.830;2024-01-06T14:34:51;2.00;;;1.77;;
1685;SDS011;840;47.980;7.830;2024-01-06T14:37:25;1.17;;;1.13;;
1685;SDS011;840;47.980;7.830;2024-01-06T14:39:52;1.00;;;1.00;;
1685;SDS011;840;47.980;7.830;2024-01-06T14:42:19;1.80;;;1.60;;
1685;SDS011;840;47.980;7.830;2024-01-06T14:44:45;2.00;;;1.80;;
1685;SDS011;840;47.980;7.830;2024-01-06T14:47:12;1.90;;;1.80;;
1685;SDS011;840;47.980;7.830;2024-01-06T14:49:39;1.77;;;1.67;;
1685;SDS011;840;47.980;7.830;2024-01-06T14:52:05;1.70;;;1.60;;
1685;SDS011;840;47.980;7.830;2024-01-06T14:54:35;1.50;;;1.40;;
1685;SDS011;840;47.980;7.830;2024-01-06T14:57:02;1.73;;;1.63;;
1685;SDS011;840;47.980;7.830;2024-01-06T14:59:29;1.30;;;1.30;;
1685;SDS011;840;47.980;7.830;2024-01-06T15:01:57;1.07;;;1.00;;
1685;SDS011;840;47.980;7.830;2024-01-06T15:04:24;1.20;;;1.10;;
1685;SDS011;840;47.980;7.830;2024-01-06T15:07:02;1.40;;;1.30;;
1685;SDS011;840;47.980;7.830;2024-01-06T15:09:31;1.93;;;1.77;;
1685;SDS011;840;47.980;7.830;2024-01-06T15:11:59;3.50;;;1.70;;
1685;SDS011;840;47.980;7.830;2024-01-06T15:14:26;4.57;;;3.67;;
1685;SDS011;840;47.980;7.830;2024-01-06T15:16:52;2.37;;;2.27;;
1685;SDS011;840;47.980;7.830;2024-01-06T15:19:19;2.00;;;1.40;;
1685;SDS011;840;47.980;7.830;2024-01-06T15:21:48;2.40;;;1.70;;
1685;SDS011;840;47.980;7.830;2024-01-06T15:24:15;2.40;;;2.20;;
1685;SDS011;840;47.980;7.830;2024-01-06T15:26:43;2.23;;;1.90;;
1685;SDS011;840;47.980;7.830;2024-01-06T15:29:11;3.30;;;2.67;;
1685;SDS011;840;47.980;7.830;2024-01-06T15:31:37;1.90;;;1.80;;
1685;SDS011;840;47.980;7.830;2024-01-06T15:34:04;1.97;;;1.80;;